X Fechar
foto
Salvar nos Favoritos

X Fechar
foto
Clique e saiba mais
Clique e saiba mais
Clique e saiba mais
Clique e saiba mais
Clique e saiba mais
Clique e saiba mais
Clique e saiba mais

América Sports

Capacete Companhia

Edgers Racing

KTM Sacramento

Toro Sports

Pro Tech

JPS Racing

MotoX Pneus

JP Motos

Clique e saiba mais

> Notícias > Últimas Notícias

MXGP 2018 - Resultados e vídeos das classificatórias em Semarang
Publicado em: 07/07/2018

Jeffrey Herlings e Pauls Jonass vencem as classificatórias em Semarang
Redação MotoX.com.br  - Foto: Youthstream


Tim Gajser e Jeffrey Herlings


Vídeo





Resultados

P. # MXGP País Moto V Dif. Gap M.V. Speed
1 84 Herlings, Jeffrey NED KTM 12 24:08.172 0:00.000 1:51.355 56.5
2 243 Gajser, Tim SLO Hon 12 0:04.011 0:04.011 1:51.232 56.6
3 91 Seewer, Jeremy SUI Yam 12 0:04.592 0:00.581 1:51.647 56.4
4 461 Febvre, Romain FRA Yam 12 0:04.931 0:00.339 1:51.084 56.7
5 222 Cairoli, Antonio ITA KTM 12 0:24.354 0:19.423 1:52.022 56.2
6 25 Desalle, Clement BEL Kaw 12 0:26.475 0:02.121 1:52.296 56.1
7 21 Paulin, Gautier FRA Hus 12 0:27.857 0:01.382 1:52.674 55.9
8 89 Van Horebeek, Jeremy BEL Yam 12 0:29.174 0:01.317 1:53.096 55.7
9 99 Anstie, Max GBR Hus 12 0:30.881 0:01.707 1:53.064 55.7
10 77 Lupino, Alessandro ITA Kaw 12 0:34.576 0:03.695 1:52.868 55.8
11 259 Coldenhoff, Glenn NED KTM 12 0:37.375 0:02.799 1:53.426 55.5
12 12 Nagl, Maximilian GER TM 12 0:39.597 0:02.222 1:53.823 55.3
13 92 Guillod, Valentin SUI KTM 12 1:13.327 0:33.730 1:55.692 54.4
14 42 Waters, Todd AUS Hon 12 1:15.827 0:02.500 1:55.522 54.5
15 336 Stewart, Lewis AUS Hus 11 1 lap 1 lap 1:58.595 53.1
16 705 Kusparwanto, Rizky Hanif INA Hus 10 2 laps 1 lap 2:09.014 48.8
17 162 Hendro, Farhan INA Hus 10 2 laps 0:56.599 2:11.903 47.7
18 701 Sondakh, Andre INA KTM 2 10 laps 8 laps 2:07.668 49.3
19 777 Bobryshev, Evgeny RUS Suz 1 11 laps 1 lap 1:56.453 54
20 288 Lazaroni, Aldi INA Hus -1 13 laps 2 laps 0:00.000 0
21 33 Lieber, Julien BEL Kaw 12 0:45.533 -13 laps 1:52.667 55.9
22 100 Searle, Tommy GBR Kaw 12 0:46.968 0:01.435 1:53.572 55.4
23 22 Strijbos, Kevin BEL KTM 12 0:49.268 0:02.300 1:53.653 55.4

P. # MXGP País Moto V Dif. Gap M.V. Speed
1 1 Jonass, Pauls LAT KTM 12 24:40.845 0:00.000 1:53.265 55.6
2 61 Prado, Jorge ESP KTM 12 0:03.494 0:03.494 1:53.364 55.5
3 919 Watson, Ben GBR Yam 12 0:13.480 0:09.986 1:53.949 55.2
4 19 Olsen, Thomas Kjer DEN Hus 12 0:19.305 0:05.825 1:54.120 55.2
5 64 Covington, Thomas USA Hus 12 0:29.844 0:10.539 1:55.319 54.6
6 10 Vlaanderen, Calvin NED Hon 12 0:32.118 0:02.274 1:56.138 54.2
7 127 Rodriguez, Anthony VEN Yam 12 0:33.955 0:01.837 1:55.510 54.5
8 747 Cervellin, Michele ITA Yam 12 0:39.748 0:05.793 1:55.600 54.4
9 172 Van doninck, Brent BEL Hus 12 0:52.387 0:12.639 1:57.081 53.8
10 46 Pootjes, Davy NED KTM 12 1:02.610 0:10.223 1:56.694 53.9
11 98 Vaessen, Bas NED Hon 12 1:08.376 0:05.766 1:56.555 54
12 193 Geerts, Jago BEL Yam 12 1:17.585 0:09.209 1:55.758 54.4
13 811 Sterry, Adam GBR Kaw 12 1:26.408 0:08.823 1:58.373 53.2
14 114 Roberts, Jy AUS Hus 12 1:56.452 0:30.044 1:59.147 52.8
15 325 Delvintor Alfarizi, Muhammad INA Hus 11 1 lap 1 lap 2:02.908 51.2
16 206 Ismayana, Diva INA Hus 11 1 lap 1:03.842 2:06.658 49.7
17 281 Pattipi, Yosua INA Hus 11 1 lap 0:20.464 2:06.471 49.8
18 204 Maksum, Hilman INA Hus 11 1 lap 0:01.735 2:09.523 48.6
19 138 Fogarty, Morgan AUS KTM 9 3 laps 2 laps 2:01.475 51.8







Curso MotoX
JPS Racing

© 2000 - 2018 MotoX MX1 Internet